createdAt,value
2022-11-16T00:01:41.361Z,6.10
2022-11-16T00:04:09.742Z,8.13
2022-11-16T00:06:36.186Z,7.18
2022-11-16T00:09:22.137Z,7.20
2022-11-16T00:11:51.251Z,6.82
2022-11-16T00:14:19.206Z,7.57
2022-11-16T00:16:45.658Z,7.50
2022-11-16T00:19:12.919Z,7.32
2022-11-16T00:21:39.926Z,8.07
2022-11-16T00:24:06.799Z,7.43
2022-11-16T00:26:33.369Z,6.75
2022-11-16T00:29:00.249Z,7.65
2022-11-16T00:31:27.071Z,7.82
2022-11-16T00:33:54.036Z,8.23
2022-11-16T00:36:20.950Z,7.15
2022-11-16T00:38:47.916Z,7.93
2022-11-16T00:41:14.437Z,8.05
2022-11-16T00:43:40.979Z,6.43
2022-11-16T00:46:07.469Z,7.47
2022-11-16T00:48:34.156Z,8.50
2022-11-16T00:51:01.018Z,8.07
2022-11-16T00:53:27.765Z,5.70
2022-11-16T00:55:54.266Z,7.30
2022-11-16T00:58:21.106Z,6.93
2022-11-16T01:00:53.992Z,6.60
2022-11-16T01:03:20.643Z,7.95
2022-11-16T01:05:47.209Z,7.70
2022-11-16T01:08:14.502Z,7.22
2022-11-16T01:10:41.578Z,8.15
2022-11-16T01:13:11.243Z,7.70
2022-11-16T01:15:37.871Z,8.07
2022-11-16T01:18:04.335Z,6.25
2022-11-16T01:20:30.875Z,7.47
2022-11-16T01:22:57.484Z,7.35
2022-11-16T01:25:24.136Z,5.47
2022-11-16T01:27:50.751Z,5.97
2022-11-16T01:30:24.716Z,5.45
2022-11-16T01:33:02.037Z,7.35
2022-11-16T01:35:28.668Z,5.28
2022-11-16T01:37:55.360Z,5.43
2022-11-16T01:40:22.512Z,6.68
2022-11-16T01:42:48.950Z,7.00
2022-11-16T01:45:22.568Z,6.38
2022-11-16T01:47:53.604Z,7.50
2022-11-16T01:50:22.854Z,6.63
2022-11-16T01:53:04.103Z,6.32
2022-11-16T01:55:39.846Z,5.22
2022-11-16T01:58:18.158Z,5.82
2022-11-16T02:00:46.958Z,6.75
2022-11-16T02:03:27.593Z,5.97
2022-11-16T02:06:28.415Z,5.13
2022-11-16T02:09:49.444Z,5.20
2022-11-16T02:12:31.218Z,5.43
2022-11-16T02:15:09.793Z,6.68
2022-11-16T02:18:01.767Z,6.03
2022-11-16T02:20:41.581Z,6.22
2022-11-16T02:23:47.565Z,6.20
2022-11-16T02:26:29.094Z,6.85
2022-11-16T02:29:19.005Z,6.30
2022-11-16T02:31:55.402Z,5.80
2022-11-16T02:34:24.678Z,7.07
2022-11-16T02:36:54.641Z,5.88
2022-11-16T02:39:27.199Z,5.55
2022-11-16T02:41:55.975Z,6.05
2022-11-16T02:44:37.102Z,7.13
2022-11-16T02:47:09.203Z,7.07
2022-11-16T02:49:43.504Z,8.00
2022-11-16T02:52:12.166Z,6.45
2022-11-16T02:54:38.627Z,6.43
2022-11-16T02:57:05.026Z,6.95
2022-11-16T02:59:42.901Z,6.13
2022-11-16T03:02:48.573Z,6.20
2022-11-16T03:05:20.277Z,5.85
2022-11-16T03:08:21.176Z,5.50
2022-11-16T03:11:14.387Z,6.22
2022-11-16T03:13:42.814Z,5.25
2022-11-16T03:16:34.400Z,6.15
2022-11-16T03:19:05.604Z,6.57
2022-11-16T03:21:47.151Z,6.78
2022-11-16T03:24:14.717Z,6.15
2022-11-16T03:26:52.752Z,5.43
2022-11-16T03:29:39.139Z,7.43
2022-11-16T03:32:18.930Z,6.68
2022-11-16T03:34:56.707Z,5.25
2022-11-16T03:37:25.748Z,7.57
2022-11-16T03:39:53.749Z,6.28
2022-11-16T03:42:25.942Z,5.65
2022-11-16T03:44:53.577Z,5.15
2022-11-16T03:47:20.143Z,6.75
2022-11-16T03:49:47.672Z,7.47
2022-11-16T03:52:17.779Z,8.52
2022-11-16T03:54:45.143Z,6.38
2022-11-16T03:57:15.589Z,7.30
2022-11-16T03:59:45.920Z,7.75
2022-11-16T04:02:12.863Z,6.85
2022-11-16T04:04:57.878Z,6.32
2022-11-16T04:07:43.208Z,7.82
2022-11-16T04:10:28.933Z,7.80
2022-11-16T04:13:14.610Z,7.28
2022-11-16T04:15:59.682Z,6.68
2022-11-16T04:18:45.011Z,5.63
2022-11-16T04:21:43.233Z,6.72
2022-11-16T04:24:16.371Z,7.40
2022-11-16T04:27:04.545Z,7.05
2022-11-16T04:29:31.971Z,6.65
2022-11-16T04:32:17.159Z,6.28
2022-11-16T04:35:02.371Z,6.47
2022-11-16T04:37:49.616Z,6.13
2022-11-16T04:40:24.106Z,5.75
2022-11-16T04:42:54.796Z,5.75
2022-11-16T04:45:41.375Z,5.05
2022-11-16T04:48:09.678Z,5.53
2022-11-16T04:50:37.934Z,5.78
2022-11-16T04:53:05.478Z,6.40
2022-11-16T04:55:38.303Z,6.15
2022-11-16T04:58:05.134Z,5.60
2022-11-16T05:00:32.372Z,6.13
2022-11-16T05:03:01.512Z,6.55
2022-11-16T05:05:29.006Z,6.88
2022-11-16T05:07:55.865Z,6.63
2022-11-16T05:10:27.003Z,6.30
2022-11-16T05:12:54.396Z,5.25
2022-11-16T05:15:22.277Z,5.80
2022-11-16T05:17:49.946Z,6.30
2022-11-16T05:20:38.787Z,6.15
2022-11-16T05:23:26.705Z,6.68
2022-11-16T05:25:54.287Z,5.38
2022-11-16T05:28:21.627Z,4.72
2022-11-16T05:30:48.164Z,4.75
2022-11-16T05:33:19.592Z,6.25
2022-11-16T05:35:46.206Z,4.38
2022-11-16T05:38:13.937Z,5.35
2022-11-16T05:40:45.236Z,5.95
2022-11-16T05:43:11.993Z,5.40
2022-11-16T05:45:44.778Z,6.32
2022-11-16T05:48:14.207Z,5.03
2022-11-16T05:50:43.042Z,6.15
2022-11-16T05:53:16.857Z,3.95
2022-11-16T05:55:43.467Z,6.10
2022-11-16T05:58:10.516Z,5.28
2022-11-16T06:00:37.634Z,5.00
2022-11-16T06:03:05.387Z,3.35
2022-11-16T06:05:40.062Z,4.03
2022-11-16T06:08:07.522Z,5.38
2022-11-16T06:10:33.969Z,5.60
2022-11-16T06:13:00.414Z,5.38
2022-11-16T06:15:26.892Z,4.85
2022-11-16T06:17:53.339Z,5.28
2022-11-16T06:20:21.016Z,4.13
2022-11-16T06:22:47.479Z,4.57
2022-11-16T06:25:14.373Z,6.00
2022-11-16T06:27:43.359Z,6.10
2022-11-16T06:30:12.752Z,4.72
2022-11-16T06:32:40.048Z,5.20
2022-11-16T06:35:07.564Z,5.85
2022-11-16T06:37:34.557Z,3.60
2022-11-16T06:40:01.036Z,4.13
2022-11-16T06:42:31.241Z,5.40
2022-11-16T06:44:59.058Z,3.95
2022-11-16T06:47:29.710Z,5.05
2022-11-16T06:49:56.226Z,4.82
2022-11-16T06:52:23.661Z,4.82
2022-11-16T06:54:50.519Z,5.22
2022-11-16T06:57:17.602Z,3.63
2022-11-16T06:59:44.479Z,4.93
2022-11-16T07:02:11.717Z,4.53
2022-11-16T07:04:39.062Z,3.97
2022-11-16T07:07:05.660Z,4.13
2022-11-16T07:09:34.392Z,5.85
2022-11-16T07:12:01.016Z,5.15
2022-11-16T07:14:33.872Z,5.15
2022-11-16T07:17:08.082Z,5.07
2022-11-16T07:19:36.728Z,4.75
2022-11-16T07:22:04.243Z,4.70
2022-11-16T07:24:31.189Z,5.65
2022-11-16T07:26:57.729Z,5.03
2022-11-16T07:29:26.340Z,4.90
2022-11-16T07:32:13.065Z,4.72
2022-11-16T07:35:11.585Z,5.05
2022-11-16T07:37:39.029Z,4.05
2022-11-16T07:40:07.697Z,4.80
2022-11-16T07:42:34.137Z,5.22
2022-11-16T07:45:07.331Z,5.18
2022-11-16T07:50:07.819Z,5.45
2022-11-16T07:52:35.181Z,5.38
2022-11-16T07:55:07.057Z,4.55
2022-11-16T07:57:34.289Z,5.25
2022-11-16T08:00:05.849Z,4.88
2022-11-16T08:02:45.920Z,4.85
2022-11-16T08:07:44.399Z,5.47
2022-11-16T08:10:11.422Z,5.30
2022-11-16T08:12:39.452Z,5.72
2022-11-16T08:15:07.261Z,5.63
2022-11-16T08:17:33.741Z,5.60
2022-11-16T08:20:02.797Z,5.43
2022-11-16T08:22:29.888Z,4.50
2022-11-16T08:24:56.638Z,5.93
2022-11-16T08:27:24.833Z,6.80
2022-11-16T08:29:53.983Z,6.15
2022-11-16T08:32:20.964Z,5.10
2022-11-16T08:34:47.983Z,5.63
2022-11-16T08:37:14.907Z,5.63
2022-11-16T08:39:43.815Z,5.88
2022-11-16T08:42:10.307Z,4.95
2022-11-16T08:44:38.250Z,6.80
2022-11-16T08:47:09.563Z,4.68
2022-11-16T08:49:43.993Z,5.60
2022-11-16T08:52:15.074Z,7.15
2022-11-16T08:54:42.917Z,5.97
2022-11-16T08:57:10.460Z,5.43
2022-11-16T08:59:38.883Z,4.75
2022-11-16T09:02:10.148Z,5.43
2022-11-16T09:04:37.332Z,5.45
2022-11-16T09:07:04.158Z,5.38
2022-11-16T09:09:30.649Z,4.45
2022-11-16T09:11:57.113Z,5.50
2022-11-16T09:14:23.618Z,4.95
2022-11-16T09:16:50.059Z,5.13
2022-11-16T09:19:16.586Z,4.22
2022-11-16T09:21:45.466Z,5.10
2022-11-16T09:24:11.916Z,4.78
2022-11-16T09:26:38.398Z,4.93
2022-11-16T09:29:04.879Z,5.80
2022-11-16T09:31:34.556Z,4.38
2022-11-16T09:34:01.009Z,5.65
2022-11-16T09:36:28.815Z,4.40
2022-11-16T09:41:53.706Z,5.28
2022-11-16T09:44:57.708Z,5.03
2022-11-16T09:47:36.035Z,5.10
2022-11-16T09:50:05.396Z,4.50
2022-11-16T09:52:36.980Z,5.10
2022-11-16T09:55:36.658Z,5.47
2022-11-16T09:58:11.505Z,5.07
2022-11-16T10:00:41.535Z,4.75
2022-11-16T10:03:13.453Z,5.55
2022-11-16T10:06:15.270Z,4.85
2022-11-16T10:08:45.373Z,5.35
2022-11-16T10:11:27.776Z,4.18
2022-11-16T10:14:17.354Z,5.03
2022-11-16T10:17:17.472Z,5.03
2022-11-16T10:19:55.885Z,5.20
2022-11-16T10:22:28.179Z,5.47
2022-11-16T10:24:59.602Z,5.43
2022-11-16T10:27:45.703Z,4.65
2022-11-16T10:30:18.034Z,5.15
2022-11-16T10:33:00.338Z,4.85
2022-11-16T10:35:37.090Z,5.50
2022-11-16T10:38:13.589Z,4.45
2022-11-16T10:40:40.648Z,4.93
2022-11-16T10:43:18.729Z,5.00
2022-11-16T10:46:03.691Z,5.30
2022-11-16T10:48:46.290Z,5.00
2022-11-16T10:51:12.753Z,4.93
2022-11-16T10:53:42.434Z,4.20
2022-11-16T10:56:25.427Z,4.65
2022-11-16T10:58:56.263Z,4.38
2022-11-16T11:01:43.373Z,4.22
2022-11-16T11:04:24.848Z,4.70
2022-11-16T11:06:52.644Z,4.45
2022-11-16T11:09:23.738Z,4.80
2022-11-16T11:12:40.008Z,4.63
2022-11-16T11:15:13.351Z,4.63
2022-11-16T11:17:42.885Z,4.45
2022-11-16T11:20:16.041Z,5.10
2022-11-16T11:23:04.524Z,4.80
2022-11-16T11:25:34.214Z,4.65
2022-11-16T11:28:28.748Z,4.18
2022-11-16T11:31:25.713Z,4.07
2022-11-16T11:33:55.575Z,4.55
2022-11-16T11:36:34.950Z,4.07
2022-11-16T11:39:05.663Z,3.88
2022-11-16T11:41:38.913Z,4.00
2022-11-16T11:44:15.019Z,4.88
2022-11-16T11:47:56.825Z,4.00
2022-11-16T11:50:16.618Z,4.78
2022-11-16T11:52:52.647Z,3.53
2022-11-16T11:55:19.303Z,4.22
2022-11-16T11:57:49.377Z,4.20
2022-11-16T12:00:18.043Z,4.18
2022-11-16T12:03:24.283Z,3.60
2022-11-16T12:05:53.443Z,3.40
2022-11-16T12:08:41.278Z,3.75
2022-11-16T12:11:33.456Z,3.92
2022-11-16T12:14:15.207Z,3.90
2022-11-16T12:16:59.919Z,2.97
2022-11-16T12:19:44.339Z,3.95
2022-11-16T12:22:33.454Z,3.13
2022-11-16T12:25:24.905Z,3.22
2022-11-16T12:28:04.357Z,3.53
2022-11-16T12:30:34.818Z,3.75
2022-11-16T12:33:10.196Z,2.42
2022-11-16T12:35:58.303Z,3.47
2022-11-16T12:38:50.460Z,3.55
2022-11-16T12:41:22.932Z,2.80
2022-11-16T12:44:04.045Z,2.97
2022-11-16T12:46:54.688Z,3.10
2022-11-16T12:49:39.889Z,2.95
2022-11-16T12:52:46.275Z,2.83
2022-11-16T12:55:26.411Z,3.15
2022-11-16T12:58:12.657Z,3.13
2022-11-16T13:00:53.590Z,3.92
2022-11-16T13:03:33.209Z,3.28
2022-11-16T13:06:08.084Z,2.70
2022-11-16T13:08:43.651Z,2.60
2022-11-16T13:11:22.424Z,2.60
2022-11-16T13:13:55.094Z,4.05
2022-11-16T13:16:24.175Z,3.08
2022-11-16T13:18:52.158Z,4.05
2022-11-16T13:21:45.281Z,6.68
2022-11-16T13:24:39.720Z,4.35
2022-11-16T13:27:30.699Z,3.30
2022-11-16T13:30:21.386Z,2.90
2022-11-16T13:33:02.860Z,3.10
2022-11-16T13:35:29.549Z,2.60
2022-11-16T13:37:55.999Z,2.47
2022-11-16T13:40:32.814Z,2.70
2022-11-16T13:43:11.443Z,2.80
2022-11-16T13:45:50.675Z,2.63
2022-11-16T13:48:38.409Z,2.50
2022-11-16T13:51:09.032Z,2.60
2022-11-16T13:56:49.491Z,2.90
2022-11-16T13:59:16.554Z,3.17
2022-11-16T14:01:57.892Z,3.67
2022-11-16T14:04:55.765Z,2.60
2022-11-16T14:07:47.235Z,2.67
2022-11-16T14:10:36.808Z,4.93
2022-11-16T14:13:04.801Z,4.63
2022-11-16T14:15:32.458Z,4.18
2022-11-16T14:18:00.864Z,2.88
2022-11-16T14:20:49.267Z,7.25
2022-11-16T14:23:27.993Z,4.90
2022-11-16T14:26:08.707Z,3.47
2022-11-16T14:29:04.449Z,2.65
2022-11-16T14:31:47.578Z,8.73
2022-11-16T14:34:20.801Z,11.98
2022-11-16T14:36:51.699Z,11.23
2022-11-16T14:39:27.015Z,13.35
2022-11-16T14:41:55.022Z,3.42
2022-11-16T14:44:24.490Z,8.60
2022-11-16T14:46:51.646Z,6.20
2022-11-16T14:49:20.344Z,6.10
2022-11-16T14:51:54.854Z,4.78
2022-11-16T14:54:30.084Z,5.55
2022-11-16T14:57:02.220Z,6.28
2022-11-16T14:59:30.213Z,3.53
2022-11-16T15:01:57.988Z,4.55
2022-11-16T15:04:26.578Z,4.85
2022-11-16T15:07:03.668Z,3.83
2022-11-16T15:09:37.303Z,9.02
2022-11-16T15:12:26.862Z,7.88
2022-11-16T15:14:56.046Z,7.85
2022-11-16T15:17:30.047Z,16.33
2022-11-16T15:20:16.535Z,15.10
2022-11-16T15:22:48.509Z,9.25
2022-11-16T15:25:26.004Z,15.25
2022-11-16T15:27:52.986Z,19.27
2022-11-16T15:30:22.985Z,9.63
2022-11-16T15:32:52.092Z,12.02
2022-11-16T15:35:32.511Z,21.02
2022-11-16T15:38:19.992Z,13.95
2022-11-16T15:40:55.255Z,18.80
2022-11-16T15:43:24.967Z,16.40
2022-11-16T15:45:52.902Z,18.38
2022-11-16T15:48:22.949Z,21.60
2022-11-16T15:51:05.188Z,21.52
2022-11-16T15:53:42.804Z,10.35
2022-11-16T15:56:17.170Z,13.15
2022-11-16T15:58:44.057Z,12.38
2022-11-16T16:01:13.072Z,14.38
2022-11-16T16:03:51.120Z,18.15
2022-11-16T16:06:47.960Z,7.20
2022-11-16T16:09:28.084Z,9.93
2022-11-16T16:12:16.564Z,11.23
2022-11-16T16:14:43.446Z,11.88
2022-11-16T16:17:12.468Z,19.00
2022-11-16T16:19:43.086Z,10.10
2022-11-16T16:22:26.299Z,16.45
2022-11-16T16:24:53.579Z,8.70
2022-11-16T16:27:25.353Z,7.18
2022-11-16T16:29:57.247Z,17.67
2022-11-16T16:32:29.577Z,7.22
2022-11-16T16:34:58.134Z,11.57
2022-11-16T16:37:32.690Z,15.90
2022-11-16T16:39:59.999Z,12.80
2022-11-16T16:42:26.750Z,16.35
2022-11-16T16:44:53.676Z,17.50
2022-11-16T16:47:20.934Z,11.93
2022-11-16T16:49:48.866Z,9.60
2022-11-16T16:52:16.030Z,8.90
2022-11-16T16:54:42.886Z,7.32
2022-11-16T16:57:14.637Z,7.50
2022-11-16T16:59:41.651Z,7.63
2022-11-16T17:02:12.939Z,13.55
2022-11-16T17:04:39.614Z,12.77
2022-11-16T17:07:06.464Z,11.65
2022-11-16T17:09:33.015Z,13.82
2022-11-16T17:12:00.155Z,14.75
2022-11-16T17:14:26.624Z,11.82
2022-11-16T17:16:53.092Z,12.32
2022-11-16T17:19:20.891Z,9.88
2022-11-16T17:21:47.416Z,14.02
2022-11-16T17:24:13.856Z,11.65
2022-11-16T17:26:41.108Z,17.83
2022-11-16T17:29:07.574Z,15.35
2022-11-16T17:31:34.035Z,15.27
2022-11-16T17:34:00.526Z,14.18
2022-11-16T17:36:26.958Z,12.45
2022-11-16T17:38:53.667Z,14.23
2022-11-16T17:41:23.815Z,13.45
2022-11-16T17:43:52.960Z,14.65
2022-11-16T17:46:21.530Z,11.90
2022-11-16T17:48:49.003Z,10.45
2022-11-16T17:51:18.805Z,10.80
2022-11-16T17:53:45.428Z,12.70
2022-11-16T17:56:13.961Z,12.25
2022-11-16T17:58:40.908Z,9.75
2022-11-16T18:01:07.589Z,9.85
2022-11-16T18:03:38.614Z,12.07
2022-11-16T18:06:06.951Z,10.80
2022-11-16T18:08:34.600Z,11.35
2022-11-16T18:11:08.295Z,8.30
2022-11-16T18:13:35.878Z,10.70
2022-11-16T18:16:23.930Z,9.00
2022-11-16T18:18:58.579Z,8.75
2022-11-16T18:21:25.672Z,9.55
2022-11-16T18:23:52.655Z,7.95
2022-11-16T18:26:22.390Z,9.52
2022-11-16T18:28:49.857Z,8.48
2022-11-16T18:31:18.985Z,6.20
2022-11-16T18:33:46.153Z,6.03
2022-11-16T18:36:12.729Z,5.70
2022-11-16T18:38:39.544Z,5.57
2022-11-16T18:41:11.830Z,4.63
2022-11-16T18:43:47.061Z,4.78
2022-11-16T18:46:13.477Z,5.18
2022-11-16T18:48:40.847Z,4.40
2022-11-16T18:51:07.311Z,4.65
2022-11-16T18:53:34.277Z,3.60
2022-11-16T18:56:01.036Z,4.25
2022-11-16T19:01:18.361Z,4.80
2022-11-16T19:03:45.104Z,3.95
2022-11-16T19:06:12.109Z,4.00
2022-11-16T19:08:40.293Z,3.88
2022-11-16T19:11:12.636Z,3.30
2022-11-16T19:13:40.708Z,3.70
2022-11-16T19:16:08.571Z,4.00
2022-11-16T19:18:36.318Z,4.00
2022-11-16T19:21:10.417Z,4.13
2022-11-16T19:23:42.830Z,4.15
2022-11-16T19:26:10.002Z,3.40
2022-11-16T19:28:38.019Z,4.00
2022-11-16T19:31:14.955Z,3.55
2022-11-16T19:33:41.730Z,3.88
2022-11-16T19:36:10.371Z,3.40
2022-11-16T19:38:37.180Z,2.85
2022-11-16T19:41:03.898Z,2.97
2022-11-16T19:43:30.420Z,3.47
2022-11-16T19:46:05.429Z,3.28
2022-11-16T19:48:33.028Z,2.63
2022-11-16T19:51:33.027Z,3.15
2022-11-16T19:54:01.358Z,3.35
2022-11-16T19:56:28.563Z,3.08
2022-11-16T19:58:55.237Z,3.50
2022-11-16T20:01:27.855Z,2.85
2022-11-16T20:03:58.217Z,3.15
2022-11-16T20:06:35.528Z,2.92
2022-11-16T20:09:08.561Z,3.08
2022-11-16T20:11:37.078Z,2.50
2022-11-16T20:14:05.297Z,2.97
2022-11-16T20:16:38.628Z,3.13
2022-11-16T20:19:07.193Z,3.42
2022-11-16T20:21:36.152Z,2.47
2022-11-16T20:24:06.719Z,2.60
2022-11-16T20:26:35.096Z,3.38
2022-11-16T20:29:01.610Z,3.00
2022-11-16T20:31:30.500Z,2.80
2022-11-16T20:34:05.242Z,2.97
2022-11-16T20:36:33.023Z,2.03
2022-11-16T20:39:00.538Z,2.60
2022-11-16T20:41:29.169Z,2.47
2022-11-16T20:43:57.436Z,2.83
2022-11-16T20:46:33.138Z,2.70
2022-11-16T20:49:01.658Z,2.50
2022-11-16T20:51:29.276Z,2.40
2022-11-16T20:53:56.038Z,2.60
2022-11-16T20:56:22.575Z,2.55
2022-11-16T20:58:49.432Z,2.35
2022-11-16T21:01:28.530Z,2.55
2022-11-16T21:03:56.104Z,2.40
2022-11-16T21:06:23.149Z,2.53
2022-11-16T21:08:49.726Z,2.63
2022-11-16T21:11:25.289Z,2.30
2022-11-16T21:14:11.151Z,2.58
2022-11-16T21:16:38.143Z,2.28
2022-11-16T21:19:05.705Z,2.53
2022-11-16T21:21:32.636Z,2.55
2022-11-16T21:23:59.409Z,2.80
2022-11-16T21:26:28.295Z,2.28
2022-11-16T21:28:55.704Z,2.55
2022-11-16T21:31:27.960Z,2.10
2022-11-16T21:33:54.652Z,2.50
2022-11-16T21:36:23.248Z,2.40
2022-11-16T21:38:50.032Z,2.55
2022-11-16T21:41:18.821Z,2.03
2022-11-16T21:43:45.458Z,2.25
2022-11-16T21:46:16.750Z,2.42
2022-11-16T21:48:44.075Z,3.00
2022-11-16T21:51:16.051Z,2.78
2022-11-16T21:53:42.855Z,2.65
2022-11-16T21:56:17.879Z,2.80
2022-11-16T21:58:45.064Z,3.10
2022-11-16T22:01:12.664Z,3.10
2022-11-16T22:03:39.350Z,3.03
2022-11-16T22:06:26.214Z,2.28
2022-11-16T22:08:52.842Z,2.45
2022-11-16T22:11:21.984Z,3.20
2022-11-16T22:13:49.438Z,3.08
2022-11-16T22:16:17.151Z,2.15
2022-11-16T22:18:43.994Z,2.47
2022-11-16T22:21:11.084Z,2.45
2022-11-16T22:23:38.189Z,2.63
2022-11-16T22:26:10.298Z,2.88
2022-11-16T22:28:37.434Z,2.92
2022-11-16T22:31:12.614Z,2.88
2022-11-16T22:33:39.460Z,3.15
2022-11-16T22:36:09.131Z,2.00
2022-11-16T22:38:36.335Z,3.08
2022-11-16T22:41:02.878Z,3.35
2022-11-16T22:43:30.669Z,3.13
2022-11-16T22:45:58.915Z,2.95
2022-11-16T22:48:33.425Z,2.50
2022-11-16T22:51:04.901Z,2.30
2022-11-16T22:53:31.465Z,3.20
2022-11-16T22:56:06.156Z,3.40
2022-11-16T22:58:32.943Z,2.60
2022-11-16T23:00:59.375Z,2.50
2022-11-16T23:03:25.886Z,2.88
2022-11-16T23:05:52.358Z,2.90
2022-11-16T23:08:24.657Z,3.40
2022-11-16T23:11:40.325Z,2.42
2022-11-16T23:14:32.106Z,3.28
2022-11-16T23:16:58.886Z,2.30
2022-11-16T23:19:44.373Z,3.50
2022-11-16T23:22:32.771Z,2.78
2022-11-16T23:25:18.688Z,1.88
2022-11-16T23:27:50.829Z,2.83
2022-11-16T23:30:17.657Z,3.17
2022-11-16T23:32:44.129Z,3.03
2022-11-16T23:35:11.185Z,2.40
2022-11-16T23:38:01.696Z,2.72
2022-11-16T23:40:39.747Z,2.30
2022-11-16T23:43:27.938Z,1.83
2022-11-16T23:45:54.366Z,2.70
2022-11-16T23:48:20.802Z,2.67
2022-11-16T23:50:47.338Z,2.60
2022-11-16T23:53:14.213Z,3.55
2022-11-16T23:55:40.949Z,2.60
2022-11-16T23:58:12.539Z,3.67
